CheckWX is a tool to help pilots better visualize weather data.  It is not intended as a substitute for an official pre-flight weather briefing.

02:00:23 UTC

KNKX METAR
Miramar MCAS Airport
San Diego, California, USA
Current

1 hour ago

KNKX 200055Z 29007KT 10SM CLR 23/14 A2990 RMK AO2 SLP120 T02280139
Observed
Jul-20 @ 00:55 UTC
Wind
  • 290° at 7 KTS
Visibility
10 SM
Flight Rules
VFR
Cloud Levels
  • Clear skies
Temperature
23°C / 73°F
Dewpoint
14°C / 57°F
Humidity
57%
Altimeter
29.9" Hg
Pressure
1012.52 hPa
Previous

2 hours ago

KNKX 192355Z 28007KT 10SM CLR 23/14 A2991 RMK AO2 SLP121 T02330139 10267 20233 56010
Observed
Jul-19 @ 23:55 UTC
Wind
  • 280° at 7 KTS
Visibility
10 SM
Flight Rules
VFR
Cloud Levels
  • Clear skies
Temperature
23°C / 73°F
Dewpoint
14°C / 57°F
Humidity
57%
Altimeter
29.91" Hg
Pressure
1012.92 hPa
Previous

3 hours ago

KNKX 192255Z 28011KT 10SM CLR 24/14 A2992 RMK AO2 SLP124 T02440139
Observed
Jul-19 @ 22:55 UTC
Wind
  • 280° at 11 KTS
Visibility
10 SM
Flight Rules
VFR
Cloud Levels
  • Clear skies
Temperature
24°C / 75°F
Dewpoint
14°C / 57°F
Humidity
54%
Altimeter
29.92" Hg
Pressure
1013.22 hPa